sensor_id;sensor_type;location;lat;lon;timestamp;P1;durP1;ratioP1;P2;durP2;ratioP2
16450;SDS011;12243;42.708;23.310;2024-02-21T00:01:38;5.33;;;4.83;;
16450;SDS011;12243;42.708;23.310;2024-02-21T00:04:07;5.97;;;5.40;;
16450;SDS011;12243;42.708;23.310;2024-02-21T00:06:34;5.53;;;5.07;;
16450;SDS011;12243;42.708;23.310;2024-02-21T00:09:01;6.10;;;5.20;;
16450;SDS011;12243;42.708;23.310;2024-02-21T00:11:28;4.97;;;4.50;;
16450;SDS011;12243;42.708;23.310;2024-02-21T00:13:56;5.60;;;5.10;;
16450;SDS011;12243;42.708;23.310;2024-02-21T00:16:23;5.53;;;5.03;;
16450;SDS011;12243;42.708;23.310;2024-02-21T00:18:50;6.07;;;5.47;;
16450;SDS011;12243;42.708;23.310;2024-02-21T00:21:16;5.77;;;4.90;;
16450;SDS011;12243;42.708;23.310;2024-02-21T00:23:44;5.50;;;5.00;;
16450;SDS011;12243;42.708;23.310;2024-02-21T00:26:14;6.13;;;5.53;;
16450;SDS011;12243;42.708;23.310;2024-02-21T00:28:41;7.57;;;5.43;;
16450;SDS011;12243;42.708;23.310;2024-02-21T00:31:10;5.90;;;5.30;;
16450;SDS011;12243;42.708;23.310;2024-02-21T00:33:37;6.17;;;5.57;;
16450;SDS011;12243;42.708;23.310;2024-02-21T00:36:04;5.87;;;5.37;;
16450;SDS011;12243;42.708;23.310;2024-02-21T00:38:31;5.50;;;5.00;;
16450;SDS011;12243;42.708;23.310;2024-02-21T00:40:58;5.67;;;5.17;;
16450;SDS011;12243;42.708;23.310;2024-02-21T00:43:25;18.30;;;10.73;;
16450;SDS011;12243;42.708;23.310;2024-02-21T00:45:52;29.63;;;15.23;;
16450;SDS011;12243;42.708;23.310;2024-02-21T00:48:23;10.07;;;9.07;;
16450;SDS011;12243;42.708;23.310;2024-02-21T00:50:49;7.30;;;6.70;;
16450;SDS011;12243;42.708;23.310;2024-02-21T00:53:17;5.33;;;4.83;;
16450;SDS011;12243;42.708;23.310;2024-02-21T00:55:44;6.93;;;6.33;;
16450;SDS011;12243;42.708;23.310;2024-02-21T00:58:10;5.23;;;4.57;;
16450;SDS011;12243;42.708;23.310;2024-02-21T01:00:37;4.63;;;4.23;;
16450;SDS011;12243;42.708;23.310;2024-02-21T01:03:04;4.77;;;4.37;;
16450;SDS011;12243;42.708;23.310;2024-02-21T01:05:34;4.77;;;4.37;;
16450;SDS011;12243;42.708;23.310;2024-02-21T01:08:01;5.30;;;4.80;;
16450;SDS011;12243;42.708;23.310;2024-02-21T01:10:28;5.27;;;4.87;;
16450;SDS011;12243;42.708;23.310;2024-02-21T01:12:55;6.10;;;5.07;;
16450;SDS011;12243;42.708;23.310;2024-02-21T01:15:22;5.00;;;4.60;;
16450;SDS011;12243;42.708;23.310;2024-02-21T01:17:48;5.40;;;4.90;;
16450;SDS011;12243;42.708;23.310;2024-02-21T01:20:16;6.00;;;5.37;;
16450;SDS011;12243;42.708;23.310;2024-02-21T01:22:44;6.17;;;5.43;;
16450;SDS011;12243;42.708;23.310;2024-02-21T01:25:11;5.80;;;5.30;;
16450;SDS011;12243;42.708;23.310;2024-02-21T01:27:38;5.73;;;5.13;;
16450;SDS011;12243;42.708;23.310;2024-02-21T01:30:07;6.40;;;5.30;;
16450;SDS011;12243;42.708;23.310;2024-02-21T01:32:35;6.23;;;5.57;;
16450;SDS011;12243;42.708;23.310;2024-02-21T01:35:02;6.50;;;5.90;;
16450;SDS011;12243;42.708;23.310;2024-02-21T01:37:30;6.60;;;5.93;;
16450;SDS011;12243;42.708;23.310;2024-02-21T01:40:01;5.60;;;5.10;;
16450;SDS011;12243;42.708;23.310;2024-02-21T01:42:29;6.23;;;5.63;;
16450;SDS011;12243;42.708;23.310;2024-02-21T01:44:55;6.83;;;6.00;;
16450;SDS011;12243;42.708;23.310;2024-02-21T01:47:24;6.50;;;5.77;;
16450;SDS011;12243;42.708;23.310;2024-02-21T01:49:51;6.37;;;5.23;;
16450;SDS011;12243;42.708;23.310;2024-02-21T01:52:18;6.37;;;5.77;;
16450;SDS011;12243;42.708;23.310;2024-02-21T01:54:45;5.30;;;4.90;;
16450;SDS011;12243;42.708;23.310;2024-02-21T01:57:17;5.50;;;4.90;;
16450;SDS011;12243;42.708;23.310;2024-02-21T01:59:44;5.57;;;5.03;;
16450;SDS011;12243;42.708;23.310;2024-02-21T02:02:11;5.30;;;4.80;;
16450;SDS011;12243;42.708;23.310;2024-02-21T02:04:38;6.10;;;5.50;;
16450;SDS011;12243;42.708;23.310;2024-02-21T02:07:06;7.33;;;6.07;;
16450;SDS011;12243;42.708;23.310;2024-02-21T02:09:36;6.27;;;5.40;;
16450;SDS011;12243;42.708;23.310;2024-02-21T02:12:03;6.27;;;5.67;;
16450;SDS011;12243;42.708;23.310;2024-02-21T02:14:32;7.90;;;6.43;;
16450;SDS011;12243;42.708;23.310;2024-02-21T02:16:59;6.43;;;5.83;;
16450;SDS011;12243;42.708;23.310;2024-02-21T02:19:26;7.17;;;5.97;;
16450;SDS011;12243;42.708;23.310;2024-02-21T02:21:53;6.60;;;6.00;;
16450;SDS011;12243;42.708;23.310;2024-02-21T02:24:26;7.23;;;6.53;;
16450;SDS011;12243;42.708;23.310;2024-02-21T02:26:55;6.43;;;5.83;;
16450;SDS011;12243;42.708;23.310;2024-02-21T02:29:25;6.93;;;6.30;;
16450;SDS011;12243;42.708;23.310;2024-02-21T02:31:51;8.00;;;6.30;;
16450;SDS011;12243;42.708;23.310;2024-02-21T02:34:18;8.27;;;6.33;;
16450;SDS011;12243;42.708;23.310;2024-02-21T02:36:45;8.40;;;7.03;;
16450;SDS011;12243;42.708;23.310;2024-02-21T02:39:14;7.90;;;7.10;;
16450;SDS011;12243;42.708;23.310;2024-02-21T02:41:43;9.57;;;7.13;;
16450;SDS011;12243;42.708;23.310;2024-02-21T02:44:10;7.93;;;7.13;;
16450;SDS011;12243;42.708;23.310;2024-02-21T02:46:39;7.40;;;6.67;;
16450;SDS011;12243;42.708;23.310;2024-02-21T02:49:06;7.90;;;6.87;;
16450;SDS011;12243;42.708;23.310;2024-02-21T02:51:33;7.90;;;7.20;;
16450;SDS011;12243;42.708;23.310;2024-02-21T02:54:00;7.43;;;6.70;;
16450;SDS011;12243;42.708;23.310;2024-02-21T02:56:27;9.30;;;7.20;;
16450;SDS011;12243;42.708;23.310;2024-02-21T02:58:59;7.37;;;6.67;;
16450;SDS011;12243;42.708;23.310;2024-02-21T03:01:26;8.80;;;7.70;;
16450;SDS011;12243;42.708;23.310;2024-02-21T03:03:53;9.43;;;8.00;;
16450;SDS011;12243;42.708;23.310;2024-02-21T03:06:20;8.27;;;7.47;;
16450;SDS011;12243;42.708;23.310;2024-02-21T03:08:47;7.87;;;7.00;;
16450;SDS011;12243;42.708;23.310;2024-02-21T03:11:14;9.03;;;7.90;;
16450;SDS011;12243;42.708;23.310;2024-02-21T03:13:40;8.93;;;8.03;;
16450;SDS011;12243;42.708;23.310;2024-02-21T03:16:10;11.20;;;9.47;;
16450;SDS011;12243;42.708;23.310;2024-02-21T03:18:37;11.60;;;10.40;;
16450;SDS011;12243;42.708;23.310;2024-02-21T03:21:04;12.83;;;10.80;;
16450;SDS011;12243;42.708;23.310;2024-02-21T03:23:31;11.27;;;9.10;;
16450;SDS011;12243;42.708;23.310;2024-02-21T03:25:58;10.97;;;9.03;;
16450;SDS011;12243;42.708;23.310;2024-02-21T03:28:25;10.87;;;8.83;;
16450;SDS011;12243;42.708;23.310;2024-02-21T03:30:51;12.00;;;8.70;;
16450;SDS011;12243;42.708;23.310;2024-02-21T03:33:20;10.40;;;8.80;;
16450;SDS011;12243;42.708;23.310;2024-02-21T03:35:48;10.87;;;8.80;;
16450;SDS011;12243;42.708;23.310;2024-02-21T03:38:15;9.43;;;8.27;;
16450;SDS011;12243;42.708;23.310;2024-02-21T03:40:42;10.10;;;8.63;;
16450;SDS011;12243;42.708;23.310;2024-02-21T03:43:09;9.70;;;8.33;;
16450;SDS011;12243;42.708;23.310;2024-02-21T03:45:35;9.57;;;8.23;;
16450;SDS011;12243;42.708;23.310;2024-02-21T03:48:02;13.97;;;9.53;;
16450;SDS011;12243;42.708;23.310;2024-02-21T03:50:31;11.77;;;9.03;;
16450;SDS011;12243;42.708;23.310;2024-02-21T03:52:58;10.33;;;8.73;;
16450;SDS011;12243;42.708;23.310;2024-02-21T03:55:25;9.80;;;8.40;;
16450;SDS011;12243;42.708;23.310;2024-02-21T03:57:52;9.87;;;8.83;;
16450;SDS011;12243;42.708;23.310;2024-02-21T04:00:19;11.80;;;9.20;;
16450;SDS011;12243;42.708;23.310;2024-02-21T04:02:45;9.23;;;8.03;;
16450;SDS011;12243;42.708;23.310;2024-02-21T04:05:15;9.93;;;8.27;;
16450;SDS011;12243;42.708;23.310;2024-02-21T04:07:43;10.30;;;8.10;;
16450;SDS011;12243;42.708;23.310;2024-02-21T04:10:10;11.60;;;8.97;;
16450;SDS011;12243;42.708;23.310;2024-02-21T04:12:40;9.93;;;8.20;;
16450;SDS011;12243;42.708;23.310;2024-02-21T04:15:07;10.90;;;8.50;;
16450;SDS011;12243;42.708;23.310;2024-02-21T04:17:36;10.27;;;8.53;;
16450;SDS011;12243;42.708;23.310;2024-02-21T04:20:04;10.63;;;8.87;;
16450;SDS011;12243;42.708;23.310;2024-02-21T04:22:39;10.70;;;8.53;;
16450;SDS011;12243;42.708;23.310;2024-02-21T04:25:08;9.77;;;8.77;;
16450;SDS011;12243;42.708;23.310;2024-02-21T04:27:36;12.97;;;9.30;;
16450;SDS011;12243;42.708;23.310;2024-02-21T04:30:03;10.80;;;9.17;;
16450;SDS011;12243;42.708;23.310;2024-02-21T04:32:30;13.40;;;9.50;;
16450;SDS011;12243;42.708;23.310;2024-02-21T04:34:57;12.20;;;9.73;;
16450;SDS011;12243;42.708;23.310;2024-02-21T04:37:24;11.47;;;9.37;;
16450;SDS011;12243;42.708;23.310;2024-02-21T04:39:51;10.97;;;8.87;;
16450;SDS011;12243;42.708;23.310;2024-02-21T04:42:19;12.67;;;9.50;;
16450;SDS011;12243;42.708;23.310;2024-02-21T04:44:46;11.33;;;9.37;;
16450;SDS011;12243;42.708;23.310;2024-02-21T04:47:13;11.37;;;9.10;;
16450;SDS011;12243;42.708;23.310;2024-02-21T04:49:40;11.77;;;8.60;;
16450;SDS011;12243;42.708;23.310;2024-02-21T04:52:07;11.10;;;9.20;;
16450;SDS011;12243;42.708;23.310;2024-02-21T04:54:33;10.63;;;9.07;;
16450;SDS011;12243;42.708;23.310;2024-02-21T04:57:01;10.87;;;9.50;;
16450;SDS011;12243;42.708;23.310;2024-02-21T04:59:29;10.93;;;8.93;;
16450;SDS011;12243;42.708;23.310;2024-02-21T05:01:56;11.17;;;8.77;;
16450;SDS011;12243;42.708;23.310;2024-02-21T05:04:23;10.50;;;8.67;;
16450;SDS011;12243;42.708;23.310;2024-02-21T05:06:50;11.77;;;9.53;;
16450;SDS011;12243;42.708;23.310;2024-02-21T05:09:17;11.37;;;9.43;;
16450;SDS011;12243;42.708;23.310;2024-02-21T05:11:45;11.93;;;9.27;;
16450;SDS011;12243;42.708;23.310;2024-02-21T05:14:12;13.23;;;10.03;;
16450;SDS011;12243;42.708;23.310;2024-02-21T05:16:41;12.40;;;9.90;;
16450;SDS011;12243;42.708;23.310;2024-02-21T05:19:07;11.30;;;9.73;;
16450;SDS011;12243;42.708;23.310;2024-02-21T05:21:34;15.67;;;11.20;;
16450;SDS011;12243;42.708;23.310;2024-02-21T05:24:01;14.67;;;10.87;;
16450;SDS011;12243;42.708;23.310;2024-02-21T05:26:28;13.53;;;10.80;;
16450;SDS011;12243;42.708;23.310;2024-02-21T05:28:55;14.23;;;11.80;;
16450;SDS011;12243;42.708;23.310;2024-02-21T05:31:22;14.30;;;11.53;;
16450;SDS011;12243;42.708;23.310;2024-02-21T05:33:50;13.43;;;11.10;;
16450;SDS011;12243;42.708;23.310;2024-02-21T05:36:17;18.97;;;13.70;;
16450;SDS011;12243;42.708;23.310;2024-02-21T05:38:44;15.27;;;12.03;;
16450;SDS011;12243;42.708;23.310;2024-02-21T05:41:11;14.90;;;11.00;;
16450;SDS011;12243;42.708;23.310;2024-02-21T05:43:38;14.20;;;11.70;;
16450;SDS011;12243;42.708;23.310;2024-02-21T05:46:07;13.87;;;10.93;;
16450;SDS011;12243;42.708;23.310;2024-02-21T05:48:33;15.00;;;11.90;;
16450;SDS011;12243;42.708;23.310;2024-02-21T05:51:02;13.97;;;10.37;;
16450;SDS011;12243;42.708;23.310;2024-02-21T05:53:29;16.43;;;11.77;;
16450;SDS011;12243;42.708;23.310;2024-02-21T05:55:56;14.43;;;11.07;;
16450;SDS011;12243;42.708;23.310;2024-02-21T05:58:23;14.70;;;10.87;;
16450;SDS011;12243;42.708;23.310;2024-02-21T06:00:50;14.93;;;10.77;;
16450;SDS011;12243;42.708;23.310;2024-02-21T06:03:17;16.57;;;12.00;;
16450;SDS011;12243;42.708;23.310;2024-02-21T06:05:44;14.83;;;11.00;;
16450;SDS011;12243;42.708;23.310;2024-02-21T06:08:12;15.00;;;11.80;;
16450;SDS011;12243;42.708;23.310;2024-02-21T06:10:39;17.57;;;12.17;;
16450;SDS011;12243;42.708;23.310;2024-02-21T06:13:10;17.70;;;13.23;;
16450;SDS011;12243;42.708;23.310;2024-02-21T06:15:38;19.20;;;12.17;;
16450;SDS011;12243;42.708;23.310;2024-02-21T06:18:05;21.60;;;14.33;;
16450;SDS011;12243;42.708;23.310;2024-02-21T06:20:32;18.77;;;13.37;;
16450;SDS011;12243;42.708;23.310;2024-02-21T06:23:01;15.53;;;11.57;;
16450;SDS011;12243;42.708;23.310;2024-02-21T06:25:29;14.73;;;10.90;;
16450;SDS011;12243;42.708;23.310;2024-02-21T06:27:56;17.27;;;12.53;;
16450;SDS011;12243;42.708;23.310;2024-02-21T06:30:25;18.13;;;12.43;;
16450;SDS011;12243;42.708;23.310;2024-02-21T06:32:53;15.60;;;12.20;;
16450;SDS011;12243;42.708;23.310;2024-02-21T06:35:21;18.07;;;12.40;;
16450;SDS011;12243;42.708;23.310;2024-02-21T06:37:49;18.30;;;12.50;;
16450;SDS011;12243;42.708;23.310;2024-02-21T06:40:16;18.13;;;13.17;;
16450;SDS011;12243;42.708;23.310;2024-02-21T06:42:45;17.83;;;12.03;;
16450;SDS011;12243;42.708;23.310;2024-02-21T06:45:11;16.97;;;12.67;;
16450;SDS011;12243;42.708;23.310;2024-02-21T06:47:38;16.53;;;12.23;;
16450;SDS011;12243;42.708;23.310;2024-02-21T06:50:05;18.33;;;13.20;;
16450;SDS011;12243;42.708;23.310;2024-02-21T06:52:34;17.80;;;14.40;;
16450;SDS011;12243;42.708;23.310;2024-02-21T06:55:01;19.00;;;13.30;;
16450;SDS011;12243;42.708;23.310;2024-02-21T06:57:28;18.20;;;13.00;;
16450;SDS011;12243;42.708;23.310;2024-02-21T06:59:56;19.63;;;14.43;;
16450;SDS011;12243;42.708;23.310;2024-02-21T07:02:23;17.77;;;12.50;;
16450;SDS011;12243;42.708;23.310;2024-02-21T07:04:50;18.40;;;13.77;;
16450;SDS011;12243;42.708;23.310;2024-02-21T07:07:17;16.23;;;11.90;;
16450;SDS011;12243;42.708;23.310;2024-02-21T07:09:44;17.10;;;11.37;;
16450;SDS011;12243;42.708;23.310;2024-02-21T07:12:13;14.93;;;11.87;;
16450;SDS011;12243;42.708;23.310;2024-02-21T07:14:40;16.17;;;11.57;;
16450;SDS011;12243;42.708;23.310;2024-02-21T07:17:08;17.27;;;11.87;;
16450;SDS011;12243;42.708;23.310;2024-02-21T07:19:35;17.33;;;12.23;;
16450;SDS011;12243;42.708;23.310;2024-02-21T07:22:02;13.20;;;11.10;;
16450;SDS011;12243;42.708;23.310;2024-02-21T07:24:29;14.37;;;10.40;;
16450;SDS011;12243;42.708;23.310;2024-02-21T07:26:57;14.63;;;11.63;;
16450;SDS011;12243;42.708;23.310;2024-02-21T07:29:29;13.70;;;10.90;;
16450;SDS011;12243;42.708;23.310;2024-02-21T07:31:56;13.67;;;10.90;;
16450;SDS011;12243;42.708;23.310;2024-02-21T07:34:24;14.43;;;11.50;;
16450;SDS011;12243;42.708;23.310;2024-02-21T07:36:51;14.93;;;11.60;;
16450;SDS011;12243;42.708;23.310;2024-02-21T07:39:18;14.53;;;11.37;;
16450;SDS011;12243;42.708;23.310;2024-02-21T07:41:45;16.50;;;11.57;;
16450;SDS011;12243;42.708;23.310;2024-02-21T07:44:13;13.87;;;11.33;;
16450;SDS011;12243;42.708;23.310;2024-02-21T07:46:40;19.40;;;12.70;;
16450;SDS011;12243;42.708;23.310;2024-02-21T07:49:06;17.93;;;13.57;;
16450;SDS011;12243;42.708;23.310;2024-02-21T07:51:35;14.63;;;12.00;;
16450;SDS011;12243;42.708;23.310;2024-02-21T07:54:02;14.40;;;11.77;;
16450;SDS011;12243;42.708;23.310;2024-02-21T07:56:30;14.03;;;11.37;;
16450;SDS011;12243;42.708;23.310;2024-02-21T07:58:57;16.80;;;12.93;;
16450;SDS011;12243;42.708;23.310;2024-02-21T08:01:24;16.73;;;12.53;;
16450;SDS011;12243;42.708;23.310;2024-02-21T08:03:51;16.43;;;12.23;;
16450;SDS011;12243;42.708;23.310;2024-02-21T08:06:18;14.57;;;12.23;;
16450;SDS011;12243;42.708;23.310;2024-02-21T08:08:47;16.00;;;12.07;;
16450;SDS011;12243;42.708;23.310;2024-02-21T08:11:14;20.53;;;14.23;;
16450;SDS011;12243;42.708;23.310;2024-02-21T08:13:41;16.73;;;12.10;;
16450;SDS011;12243;42.708;23.310;2024-02-21T08:16:07;17.37;;;12.93;;
16450;SDS011;12243;42.708;23.310;2024-02-21T08:18:34;18.90;;;12.70;;
16450;SDS011;12243;42.708;23.310;2024-02-21T08:21:03;16.03;;;12.23;;
16450;SDS011;12243;42.708;23.310;2024-02-21T08:23:30;14.17;;;11.60;;
16450;SDS011;12243;42.708;23.310;2024-02-21T08:25:59;16.43;;;11.50;;
16450;SDS011;12243;42.708;23.310;2024-02-21T08:28:29;19.73;;;13.17;;
16450;SDS011;12243;42.708;23.310;2024-02-21T08:30:55;16.23;;;12.27;;
16450;SDS011;12243;42.708;23.310;2024-02-21T08:33:22;14.07;;;11.53;;
16450;SDS011;12243;42.708;23.310;2024-02-21T08:35:50;12.80;;;10.27;;
16450;SDS011;12243;42.708;23.310;2024-02-21T08:38:17;12.93;;;10.87;;
16450;SDS011;12243;42.708;23.310;2024-02-21T08:40:44;13.23;;;10.60;;
16450;SDS011;12243;42.708;23.310;2024-02-21T08:43:12;16.53;;;10.93;;
16450;SDS011;12243;42.708;23.310;2024-02-21T08:45:39;11.50;;;10.30;;
16450;SDS011;12243;42.708;23.310;2024-02-21T08:48:06;14.47;;;11.20;;
16450;SDS011;12243;42.708;23.310;2024-02-21T08:50:33;11.10;;;9.47;;
16450;SDS011;12243;42.708;23.310;2024-02-21T08:53:01;14.60;;;11.00;;
16450;SDS011;12243;42.708;23.310;2024-02-21T08:55:28;12.53;;;10.33;;
16450;SDS011;12243;42.708;23.310;2024-02-21T08:57:55;16.77;;;12.43;;
16450;SDS011;12243;42.708;23.310;2024-02-21T09:00:23;13.30;;;10.37;;
16450;SDS011;12243;42.708;23.310;2024-02-21T09:02:52;12.23;;;10.93;;
16450;SDS011;12243;42.708;23.310;2024-02-21T09:05:21;14.63;;;11.07;;
16450;SDS011;12243;42.708;23.310;2024-02-21T09:07:48;11.60;;;9.83;;
16450;SDS011;12243;42.708;23.310;2024-02-21T09:10:14;13.77;;;11.10;;
16450;SDS011;12243;42.708;23.310;2024-02-21T09:12:42;10.37;;;9.27;;
16450;SDS011;12243;42.708;23.310;2024-02-21T09:15:09;12.77;;;10.40;;
16450;SDS011;12243;42.708;23.310;2024-02-21T09:17:40;14.43;;;12.20;;
16450;SDS011;12243;42.708;23.310;2024-02-21T09:20:07;11.73;;;10.53;;
16450;SDS011;12243;42.708;23.310;2024-02-21T09:22:37;12.70;;;10.70;;
16450;SDS011;12243;42.708;23.310;2024-02-21T09:25:05;13.83;;;11.43;;
16450;SDS011;12243;42.708;23.310;2024-02-21T09:27:32;11.73;;;10.17;;
16450;SDS011;12243;42.708;23.310;2024-02-21T09:29:59;15.27;;;10.30;;
16450;SDS011;12243;42.708;23.310;2024-02-21T09:32:26;11.60;;;10.40;;
16450;SDS011;12243;42.708;23.310;2024-02-21T09:34:55;11.80;;;10.50;;
16450;SDS011;12243;42.708;23.310;2024-02-21T09:37:21;15.03;;;10.97;;
16450;SDS011;12243;42.708;23.310;2024-02-21T09:39:48;12.60;;;10.60;;
16450;SDS011;12243;42.708;23.310;2024-02-21T09:42:18;11.77;;;10.17;;
16450;SDS011;12243;42.708;23.310;2024-02-21T09:44:48;11.97;;;10.33;;
16450;SDS011;12243;42.708;23.310;2024-02-21T09:47:17;12.37;;;8.70;;
16450;SDS011;12243;42.708;23.310;2024-02-21T09:49:49;11.57;;;9.87;;
16450;SDS011;12243;42.708;23.310;2024-02-21T09:52:17;12.13;;;9.17;;
16450;SDS011;12243;42.708;23.310;2024-02-21T09:54:47;12.10;;;9.93;;
16450;SDS011;12243;42.708;23.310;2024-02-21T09:57:14;12.50;;;10.73;;
16450;SDS011;12243;42.708;23.310;2024-02-21T09:59:41;12.73;;;10.50;;
16450;SDS011;12243;42.708;23.310;2024-02-21T10:02:08;11.70;;;8.93;;
16450;SDS011;12243;42.708;23.310;2024-02-21T10:04:36;8.87;;;8.07;;
16450;SDS011;12243;42.708;23.310;2024-02-21T10:07:03;10.03;;;8.83;;
16450;SDS011;12243;42.708;23.310;2024-02-21T10:09:32;9.07;;;8.27;;
16450;SDS011;12243;42.708;23.310;2024-02-21T10:12:07;9.23;;;7.77;;
16450;SDS011;12243;42.708;23.310;2024-02-21T10:14:35;10.60;;;8.73;;
16450;SDS011;12243;42.708;23.310;2024-02-21T10:17:02;11.20;;;9.07;;
16450;SDS011;12243;42.708;23.310;2024-02-21T10:19:34;10.20;;;8.70;;
16450;SDS011;12243;42.708;23.310;2024-02-21T10:22:01;9.47;;;8.47;;
16450;SDS011;12243;42.708;23.310;2024-02-21T10:24:30;10.33;;;8.90;;
16450;SDS011;12243;42.708;23.310;2024-02-21T10:26:59;8.70;;;7.67;;
16450;SDS011;12243;42.708;23.310;2024-02-21T10:29:29;8.13;;;7.33;;
16450;SDS011;12243;42.708;23.310;2024-02-21T10:32:06;8.87;;;7.83;;
16450;SDS011;12243;42.708;23.310;2024-02-21T10:34:33;8.10;;;7.30;;
16450;SDS011;12243;42.708;23.310;2024-02-21T10:37:01;7.83;;;7.10;;
16450;SDS011;12243;42.708;23.310;2024-02-21T10:39:28;7.90;;;7.20;;
16450;SDS011;12243;42.708;23.310;2024-02-21T10:41:59;10.77;;;9.67;;
16450;SDS011;12243;42.708;23.310;2024-02-21T10:44:31;6.53;;;5.93;;
16450;SDS011;12243;42.708;23.310;2024-02-21T10:47:00;7.00;;;6.37;;
16450;SDS011;12243;42.708;23.310;2024-02-21T10:49:33;7.23;;;6.53;;
16450;SDS011;12243;42.708;23.310;2024-02-21T10:52:06;6.93;;;6.23;;
16450;SDS011;12243;42.708;23.310;2024-02-21T10:54:40;6.07;;;5.57;;
16450;SDS011;12243;42.708;23.310;2024-02-21T10:57:13;6.87;;;6.27;;
16450;SDS011;12243;42.708;23.310;2024-02-21T10:59:40;5.17;;;4.77;;
16450;SDS011;12243;42.708;23.310;2024-02-21T11:02:09;5.93;;;5.43;;
16450;SDS011;12243;42.708;23.310;2024-02-21T11:04:36;5.87;;;5.27;;
16450;SDS011;12243;42.708;23.310;2024-02-21T11:07:03;5.80;;;5.30;;
16450;SDS011;12243;42.708;23.310;2024-02-21T11:09:32;5.17;;;4.70;;
16450;SDS011;12243;42.708;23.310;2024-02-21T11:12:01;51.70;;;25.73;;
16450;SDS011;12243;42.708;23.310;2024-02-21T11:14:31;6.40;;;5.83;;
16450;SDS011;12243;42.708;23.310;2024-02-21T11:17:01;6.57;;;5.97;;
16450;SDS011;12243;42.708;23.310;2024-02-21T11:19:29;5.03;;;4.60;;
16450;SDS011;12243;42.708;23.310;2024-02-21T11:21:57;4.90;;;4.50;;
16450;SDS011;12243;42.708;23.310;2024-02-21T11:24:27;4.60;;;4.30;;
16450;SDS011;12243;42.708;23.310;2024-02-21T11:26:56;4.80;;;4.40;;
16450;SDS011;12243;42.708;23.310;2024-02-21T11:29:23;5.70;;;4.60;;
16450;SDS011;12243;42.708;23.310;2024-02-21T11:31:52;4.80;;;4.50;;
16450;SDS011;12243;42.708;23.310;2024-02-21T11:34:19;6.87;;;5.63;;
16450;SDS011;12243;42.708;23.310;2024-02-21T11:36:47;6.33;;;5.20;;
16450;SDS011;12243;42.708;23.310;2024-02-21T11:39:21;4.50;;;4.20;;
16450;SDS011;12243;42.708;23.310;2024-02-21T11:42:03;4.73;;;4.37;;
16450;SDS011;12243;42.708;23.310;2024-02-21T11:44:33;6.10;;;5.23;;
16450;SDS011;12243;42.708;23.310;2024-02-21T11:47:04;4.67;;;4.17;;
16450;SDS011;12243;42.708;23.310;2024-02-21T11:49:36;6.97;;;6.23;;
16450;SDS011;12243;42.708;23.310;2024-02-21T11:52:04;5.77;;;5.27;;
16450;SDS011;12243;42.708;23.310;2024-02-21T11:54:32;6.73;;;5.73;;
16450;SDS011;12243;42.708;23.310;2024-02-21T11:57:00;9.10;;;7.80;;
16450;SDS011;12243;42.708;23.310;2024-02-21T11:59:29;5.97;;;5.47;;
16450;SDS011;12243;42.708;23.310;2024-02-21T12:01:58;5.63;;;4.67;;
16450;SDS011;12243;42.708;23.310;2024-02-21T12:04:26;6.90;;;5.17;;
16450;SDS011;12243;42.708;23.310;2024-02-21T12:06:54;5.07;;;4.67;;
16450;SDS011;12243;42.708;23.310;2024-02-21T12:09:22;5.83;;;4.87;;
16450;SDS011;12243;42.708;23.310;2024-02-21T12:11:56;5.33;;;4.93;;
16450;SDS011;12243;42.708;23.310;2024-02-21T12:14:24;8.07;;;5.73;;
16450;SDS011;12243;42.708;23.310;2024-02-21T12:16:52;4.30;;;4.00;;
16450;SDS011;12243;42.708;23.310;2024-02-21T12:19:18;4.70;;;4.30;;
16450;SDS011;12243;42.708;23.310;2024-02-21T12:21:47;5.37;;;4.87;;
16450;SDS011;12243;42.708;23.310;2024-02-21T12:24:15;5.90;;;4.70;;
16450;SDS011;12243;42.708;23.310;2024-02-21T12:26:43;6.03;;;5.50;;
16450;SDS011;12243;42.708;23.310;2024-02-21T12:29:10;6.50;;;5.33;;
16450;SDS011;12243;42.708;23.310;2024-02-21T12:31:37;6.73;;;6.13;;
16450;SDS011;12243;42.708;23.310;2024-02-21T12:34:04;11.17;;;5.83;;
16450;SDS011;12243;42.708;23.310;2024-02-21T12:36:31;7.40;;;6.40;;
16450;SDS011;12243;42.708;23.310;2024-02-21T12:39:00;7.17;;;5.80;;
16450;SDS011;12243;42.708;23.310;2024-02-21T12:41:29;7.97;;;5.90;;
16450;SDS011;12243;42.708;23.310;2024-02-21T12:43:58;9.10;;;6.97;;
16450;SDS011;12243;42.708;23.310;2024-02-21T12:46:25;8.17;;;6.37;;
16450;SDS011;12243;42.708;23.310;2024-02-21T12:48:52;8.30;;;6.30;;
16450;SDS011;12243;42.708;23.310;2024-02-21T12:51:19;7.27;;;6.57;;
16450;SDS011;12243;42.708;23.310;2024-02-21T12:53:46;10.73;;;7.77;;
16450;SDS011;12243;42.708;23.310;2024-02-21T12:56:16;7.40;;;6.70;;
16450;SDS011;12243;42.708;23.310;2024-02-21T12:58:43;7.67;;;6.97;;
16450;SDS011;12243;42.708;23.310;2024-02-21T13:01:10;7.40;;;6.67;;
16450;SDS011;12243;42.708;23.310;2024-02-21T13:03:37;13.70;;;8.43;;
16450;SDS011;12243;42.708;23.310;2024-02-21T13:06:04;8.67;;;5.90;;
16450;SDS011;12243;42.708;23.310;2024-02-21T13:08:32;23.13;;;12.60;;
16450;SDS011;12243;42.708;23.310;2024-02-21T13:11:00;8.50;;;7.00;;
16450;SDS011;12243;42.708;23.310;2024-02-21T13:13:29;8.63;;;6.90;;
16450;SDS011;12243;42.708;23.310;2024-02-21T13:15:56;10.83;;;8.00;;
16450;SDS011;12243;42.708;23.310;2024-02-21T13:18:24;9.27;;;8.03;;
16450;SDS011;12243;42.708;23.310;2024-02-21T13:20:51;13.13;;;8.20;;
16450;SDS011;12243;42.708;23.310;2024-02-21T13:23:19;7.03;;;6.07;;
16450;SDS011;12243;42.708;23.310;2024-02-21T13:25:46;5.47;;;5.03;;
16450;SDS011;12243;42.708;23.310;2024-02-21T13:28:14;7.53;;;6.17;;
16450;SDS011;12243;42.708;23.310;2024-02-21T13:30:43;5.07;;;4.63;;
16450;SDS011;12243;42.708;23.310;2024-02-21T13:33:10;8.10;;;5.10;;
16450;SDS011;12243;42.708;23.310;2024-02-21T13:35:37;10.97;;;7.07;;
16450;SDS011;12243;42.708;23.310;2024-02-21T13:38:04;23.97;;;13.07;;
16450;SDS011;12243;42.708;23.310;2024-02-21T13:40:31;7.87;;;6.50;;
16450;SDS011;12243;42.708;23.310;2024-02-21T13:42:58;9.47;;;6.70;;
16450;SDS011;12243;42.708;23.310;2024-02-21T13:45:25;9.53;;;7.50;;
16450;SDS011;12243;42.708;23.310;2024-02-21T13:47:53;6.70;;;5.97;;
16450;SDS011;12243;42.708;23.310;2024-02-21T13:50:23;11.77;;;9.80;;
16450;SDS011;12243;42.708;23.310;2024-02-21T13:52:56;8.57;;;6.33;;
16450;SDS011;12243;42.708;23.310;2024-02-21T13:55:23;6.73;;;5.70;;
16450;SDS011;12243;42.708;23.310;2024-02-21T13:57:51;6.60;;;6.00;;
16450;SDS011;12243;42.708;23.310;2024-02-21T14:00:18;7.87;;;6.43;;
16450;SDS011;12243;42.708;23.310;2024-02-21T14:02:46;7.97;;;6.97;;
16450;SDS011;12243;42.708;23.310;2024-02-21T14:05:14;6.23;;;5.50;;
16450;SDS011;12243;42.708;23.310;2024-02-21T14:07:41;5.73;;;5.13;;
16450;SDS011;12243;42.708;23.310;2024-02-21T14:10:08;7.97;;;6.47;;
16450;SDS011;12243;42.708;23.310;2024-02-21T14:12:35;6.53;;;5.90;;
16450;SDS011;12243;42.708;23.310;2024-02-21T14:15:03;6.27;;;5.67;;
16450;SDS011;12243;42.708;23.310;2024-02-21T14:17:30;5.60;;;5.10;;
16450;SDS011;12243;42.708;23.310;2024-02-21T14:19:57;6.13;;;5.53;;
16450;SDS011;12243;42.708;23.310;2024-02-21T14:22:26;7.50;;;5.33;;
16450;SDS011;12243;42.708;23.310;2024-02-21T14:24:53;10.07;;;6.67;;
16450;SDS011;12243;42.708;23.310;2024-02-21T14:27:21;6.73;;;5.50;;